Time;durP1;ratioP1;P1;durP2;ratioP2;P2;SDS_P1;SDS_P2;PMS_P1;PMS_P2;Temp;Humidity;BMP_temperature;BMP_pressure;BME280_temperature;BME280_humidity;BME280_pressure;Samples;Min_cycle;Max_cycle;Signal;HPM_P1;HPM_P2
2022/06/15 00:01:56;;;;;;;5.60;3.50;;;19.30;98.30;;;;;;5051223;28;20483;-93
2022/06/15 00:04:22;;;;;;;3.50;3.20;;;19.20;98.40;;;;;;5050954;28;20408;-94
2022/06/15 00:06:47;;;;;;;6.27;4.00;;;19.20;98.40;;;;;;5050764;28;20448;-95
2022/06/15 00:09:13;;;;;;;4.27;3.87;;;19.10;98.50;;;;;;5054317;28;20820;-93
2022/06/15 00:11:43;;;;;;;4.47;3.87;;;19.10;98.60;;;;;;5061613;28;20210;-94
2022/06/15 00:14:15;;;;;;;3.90;3.33;;;19.10;98.70;;;;;;5051722;28;20188;-94
2022/06/15 00:16:42;;;;;;;6.83;3.90;;;19.00;98.70;;;;;;5056204;28;20588;-92
2022/06/15 00:19:07;;;;;;;5.43;3.20;;;19.00;98.70;;;;;;5058217;28;20444;-94
2022/06/15 00:21:33;;;;;;;4.13;3.80;;;19.00;98.70;;;;;;5058813;28;20478;-95
2022/06/15 00:23:59;;;;;;;6.43;3.90;;;18.90;98.60;;;;;;5061515;28;20192;-93
2022/06/15 00:26:26;;;;;;;6.87;3.90;;;18.90;98.80;;;;;;5055634;28;20262;-93
2022/06/15 00:28:52;;;;;;;7.50;3.90;;;18.90;98.90;;;;;;5051919;28;20514;-94
2022/06/15 00:31:18;;;;;;;3.83;3.43;;;18.80;99.00;;;;;;5058180;28;20455;-93
2022/06/15 00:33:44;;;;;;;5.27;3.80;;;18.80;99.00;;;;;;5053814;28;20525;-93
2022/06/15 00:36:17;;;;;;;4.60;3.77;;;18.80;99.00;;;;;;5061951;28;20517;-94
2022/06/15 00:38:46;;;;;;;6.67;3.80;;;18.80;99.10;;;;;;5058249;28;20175;-95
2022/06/15 00:41:15;;;;;;;5.00;4.50;;;18.80;99.10;;;;;;5050504;28;20506;-94
2022/06/15 00:43:48;;;;;;;7.67;3.63;;;18.70;99.20;;;;;;5050220;28;20419;-95
2022/06/15 00:46:20;;;;;;;6.47;3.77;;;18.70;99.20;;;;;;5049928;28;20456;-95
2022/06/15 00:48:50;;;;;;;4.37;3.80;;;18.70;99.30;;;;;;5055263;28;20495;-94
2022/06/15 00:51:16;;;;;;;4.37;3.90;;;18.60;99.30;;;;;;5050601;28;20534;-94
2022/06/15 00:53:42;;;;;;;4.27;3.87;;;18.60;99.30;;;;;;5050125;28;20416;-94
2022/06/15 00:56:09;;;;;;;7.00;3.67;;;18.60;99.30;;;;;;5050303;28;20533;-94
2022/06/15 00:58:38;;;;;;;4.30;3.77;;;18.60;99.40;;;;;;5050240;28;20174;-94
2022/06/15 01:01:05;;;;;;;4.93;3.90;;;18.50;99.40;;;;;;5052363;28;20432;-94
2022/06/15 01:03:32;;;;;;;5.33;3.80;;;18.50;99.50;;;;;;5050101;28;20419;-95
2022/06/15 01:06:06;;;;;;;5.33;4.00;;;18.50;99.60;;;;;;5049853;28;20432;-94
2022/06/15 01:08:48;;;;;;;4.10;3.70;;;18.50;99.60;;;;;;5050141;28;20473;-93
2022/06/15 01:11:42;;;;;;;3.97;3.60;;;18.50;99.60;;;;;;5055369;28;20444;-94
2022/06/15 01:14:19;;;;;;;6.40;3.40;;;18.50;99.60;;;;;;5050208;28;20424;-94
2022/06/15 01:17:11;;;;;;;5.70;2.83;;;18.50;99.60;;;;;;5053393;28;20489;-95
2022/06/15 01:20:05;;;;;;;3.50;3.20;;;18.40;99.70;;;;;;5034276;28;20400;-93
2022/06/15 01:22:59;;;;;;;4.33;3.30;;;18.40;99.80;;;;;;5057223;28;20455;-94
2022/06/15 01:25:31;;;;;;;4.90;3.37;;;18.40;99.80;;;;;;5050559;28;20436;-94
2022/06/15 01:28:24;;;;;;;6.10;3.77;;;18.40;99.90;;;;;;5049816;28;20435;-93
2022/06/15 01:30:58;;;;;;;5.33;4.17;;;18.40;99.90;;;;;;5050026;28;20535;-94
2022/06/15 01:33:26;;;;;;;4.00;3.63;;;18.30;99.90;;;;;;5050272;28;20433;-94
2022/06/15 01:36:13;;;;;;;5.27;3.73;;;18.30;99.90;;;;;;5052989;28;20476;-94
2022/06/15 01:38:52;;;;;;;5.03;3.43;;;18.30;99.90;;;;;;5058166;28;20416;-94
2022/06/15 01:41:36;;;;;;;5.57;3.47;;;18.30;99.90;;;;;;5061348;28;20447;-94
2022/06/15 01:44:30;;;;;;;7.07;3.70;;;18.20;99.90;;;;;;5053891;28;20427;-93
2022/06/15 01:47:00;;;;;;;4.67;3.53;;;18.20;99.90;;;;;;5054355;28;20463;-94
2022/06/15 01:49:29;;;;;;;5.10;4.00;;;18.10;99.90;;;;;;5073730;28;20409;-94
2022/06/15 01:51:57;;;;;;;5.00;3.33;;;18.10;99.90;;;;;;5053443;28;20487;-95
2022/06/15 01:54:32;;;;;;;6.83;3.77;;;18.10;99.90;;;;;;5053499;28;20411;-94
2022/06/15 01:57:01;;;;;;;6.13;3.87;;;18.10;99.90;;;;;;5052712;28;20518;-95
2022/06/15 01:59:29;;;;;;;4.10;3.70;;;18.10;99.90;;;;;;5053528;28;20924;-94
2022/06/15 02:02:08;;;;;;;5.20;4.13;;;18.10;99.90;;;;;;5054600;28;20451;-94
2022/06/15 02:05:01;;;;;;;4.33;3.57;;;18.10;99.90;;;;;;5053557;28;20416;-94
2022/06/15 02:07:34;;;;;;;7.00;4.40;;;18.10;99.90;;;;;;5053215;28;20983;-94
2022/06/15 02:10:16;;;;;;;5.50;4.00;;;18.10;99.90;;;;;;5053351;28;20833;-96
2022/06/15 02:13:09;;;;;;;5.23;4.30;;;18.00;99.90;;;;;;5053209;28;20448;-94
2022/06/15 02:15:40;;;;;;;3.90;3.60;;;18.00;99.90;;;;;;5054859;28;20439;-94
2022/06/15 02:18:10;;;;;;;4.53;3.90;;;18.00;99.90;;;;;;5052751;28;20495;-94
2022/06/15 02:20:41;;;;;;;4.53;3.50;;;18.00;99.90;;;;;;5057038;28;20431;-94
2022/06/15 02:23:11;;;;;;;4.40;3.93;;;18.00;99.90;;;;;;5055745;28;20435;-95
2022/06/15 02:25:43;;;;;;;3.47;3.17;;;18.00;99.90;;;;;;5038258;28;20424;-94
2022/06/15 02:28:09;;;;;;;5.33;3.90;;;17.90;99.90;;;;;;5069826;28;20443;-94
2022/06/15 02:30:35;;;;;;;4.33;3.93;;;17.90;99.90;;;;;;5072368;28;20433;-95
2022/06/15 02:33:24;;;;;;;4.40;4.00;;;17.90;99.90;;;;;;5071080;28;20456;-95
2022/06/15 02:35:50;;;;;;;5.80;4.33;;;17.90;99.90;;;;;;5074215;28;20455;-93
2022/06/15 02:38:16;;;;;;;4.13;3.80;;;17.90;99.90;;;;;;5072368;28;20446;-94
2022/06/15 02:40:42;;;;;;;5.70;5.07;;;17.90;99.90;;;;;;5066769;28;20800;-93
2022/06/15 02:43:10;;;;;;;4.13;3.73;;;17.90;99.90;;;;;;5055200;28;20971;-94
2022/06/15 02:45:39;;;;;;;5.40;4.80;;;17.90;99.90;;;;;;5052048;28;20506;-94
2022/06/15 02:48:08;;;;;;;4.70;4.30;;;17.80;99.90;;;;;;5052308;28;20439;-94
2022/06/15 02:50:42;;;;;;;4.60;4.20;;;17.80;99.90;;;;;;5052383;28;20424;-93
2022/06/15 02:53:15;;;;;;;5.93;5.00;;;17.80;99.90;;;;;;5038392;28;20420;-94
2022/06/15 02:55:43;;;;;;;6.23;4.47;;;17.80;99.90;;;;;;5055393;28;20471;-93
2022/06/15 02:58:20;;;;;;;5.03;3.90;;;17.70;99.90;;;;;;5051671;28;20513;-93
2022/06/15 03:00:46;;;;;;;4.57;4.17;;;17.70;99.90;;;;;;5052108;28;20963;-93
2022/06/15 03:03:24;;;;;;;4.90;4.40;;;17.70;99.90;;;;;;5051890;28;21002;-96
2022/06/15 03:05:50;;;;;;;4.30;3.80;;;17.60;99.90;;;;;;5054162;28;20431;-96
2022/06/15 03:08:17;;;;;;;4.97;4.57;;;17.70;99.90;;;;;;5051945;28;20775;-94
2022/06/15 03:10:43;;;;;;;4.70;4.30;;;17.70;99.90;;;;;;5051488;28;20466;-94
2022/06/15 03:13:10;;;;;;;5.63;4.07;;;17.70;99.90;;;;;;5063242;28;20416;-94
2022/06/15 03:15:35;;;;;;;4.80;4.30;;;17.70;99.90;;;;;;5062919;28;20481;-95
2022/06/15 03:18:02;;;;;;;4.20;3.60;;;17.80;99.90;;;;;;5058398;28;20440;-94
2022/06/15 03:20:28;;;;;;;4.67;3.80;;;17.80;99.90;;;;;;5056491;28;21005;-96
2022/06/15 03:22:56;;;;;;;7.33;3.53;;;17.80;99.90;;;;;;5060189;28;20493;-94
2022/06/15 03:25:22;;;;;;;5.20;4.30;;;17.80;99.90;;;;;;5056722;28;20948;-94
2022/06/15 03:27:48;;;;;;;3.80;3.50;;;17.80;99.90;;;;;;5061335;28;20436;-93
2022/06/15 03:30:15;;;;;;;6.20;4.27;;;17.90;99.90;;;;;;5070920;28;20190;-94
2022/06/15 03:32:42;;;;;;;5.03;4.40;;;17.90;99.90;;;;;;5060149;28;20497;-96
2022/06/15 03:35:10;;;;;;;10.03;3.90;;;17.90;99.90;;;;;;5067665;28;20419;-95
2022/06/15 03:37:37;;;;;;;4.90;3.20;;;17.90;99.90;;;;;;5056596;28;20526;-96
2022/06/15 03:40:09;;;;;;;7.00;4.20;;;17.90;99.90;;;;;;5050968;28;20924;-96
2022/06/15 03:42:36;;;;;;;14.80;4.63;;;17.90;99.90;;;;;;5058088;28;20520;-96
2022/06/15 03:45:03;;;;;;;4.37;3.97;;;17.90;99.90;;;;;;5051643;28;20518;-96
2022/06/15 03:47:29;;;;;;;5.37;4.00;;;17.90;99.90;;;;;;5050962;28;20459;-96
2022/06/15 03:49:55;;;;;;;5.20;3.90;;;17.90;99.90;;;;;;5050792;28;20760;-94
2022/06/15 03:52:24;;;;;;;7.70;3.90;;;17.90;99.90;;;;;;5051255;28;20448;-94
2022/06/15 03:54:50;;;;;;;3.93;3.30;;;17.90;99.90;;;;;;5054979;28;20434;-94
2022/06/15 03:57:18;;;;;;;3.60;3.30;;;17.90;99.90;;;;;;5050358;28;20578;-94
2022/06/15 03:59:44;;;;;;;4.40;4.00;;;18.00;99.90;;;;;;5053892;28;20174;-95
2022/06/15 04:02:11;;;;;;;6.20;4.13;;;18.00;99.90;;;;;;5062725;28;20515;-96
2022/06/15 04:04:37;;;;;;;7.30;3.57;;;18.00;99.90;;;;;;5057372;28;20420;-94
2022/06/15 04:07:04;;;;;;;4.60;4.20;;;18.00;99.90;;;;;;5054687;28;20464;-92
2022/06/15 04:09:30;;;;;;;4.17;3.77;;;18.00;99.90;;;;;;5053705;28;20471;-94
2022/06/15 04:12:01;;;;;;;6.93;3.97;;;18.00;99.90;;;;;;5050640;28;20501;-94
2022/06/15 04:14:28;;;;;;;5.40;4.20;;;18.00;99.90;;;;;;5050604;28;20423;-96
2022/06/15 04:16:54;;;;;;;5.60;3.90;;;18.00;99.90;;;;;;5050708;28;20487;-96
2022/06/15 04:19:26;;;;;;;4.53;3.93;;;18.10;99.90;;;;;;5050927;28;20416;-96
2022/06/15 04:21:52;;;;;;;6.67;4.20;;;18.10;99.90;;;;;;5052817;28;20455;-94
2022/06/15 04:24:19;;;;;;;4.13;3.40;;;18.10;99.90;;;;;;5049982;28;20432;-96
2022/06/15 04:26:47;;;;;;;5.43;4.00;;;18.20;99.90;;;;;;5033932;28;20957;-96
2022/06/15 04:29:14;;;;;;;8.73;4.00;;;18.20;99.90;;;;;;5032821;28;20439;-96
2022/06/15 04:31:40;;;;;;;30.17;16.70;;;18.10;99.90;;;;;;5033683;28;20503;-94
2022/06/15 04:34:09;;;;;;;15.33;9.27;;;18.20;99.90;;;;;;5040719;28;20460;-96
2022/06/15 04:36:36;;;;;;;8.27;4.63;;;18.20;99.90;;;;;;5043236;28;20293;-95
2022/06/15 04:39:03;;;;;;;6.00;4.00;;;18.20;99.90;;;;;;5046422;28;20435;-94
2022/06/15 04:41:29;;;;;;;6.57;3.80;;;18.20;99.90;;;;;;5046242;28;20553;-95
2022/06/15 04:43:55;;;;;;;5.17;4.30;;;18.20;99.90;;;;;;5056596;28;20431;-95
2022/06/15 04:46:21;;;;;;;3.33;3.03;;;18.20;99.90;;;;;;5053984;28;20820;-94
2022/06/15 04:48:48;;;;;;;4.20;3.80;;;18.30;99.90;;;;;;5056609;28;20449;-96
2022/06/15 04:51:23;;;;;;;3.60;3.30;;;18.30;99.90;;;;;;5052944;28;20345;-94
2022/06/15 04:53:50;;;;;;;4.57;2.63;;;18.30;99.90;;;;;;5053513;28;20415;-94
2022/06/15 04:56:16;;;;;;;3.93;3.40;;;18.30;99.90;;;;;;5053188;28;20860;-96
2022/06/15 04:58:43;;;;;;;3.77;3.37;;;18.40;99.90;;;;;;5053152;28;20399;-96
2022/06/15 05:01:12;;;;;;;3.67;2.97;;;18.40;99.90;;;;;;5054454;28;20466;-94
2022/06/15 05:03:39;;;;;;;4.00;3.20;;;18.50;99.90;;;;;;5032923;28;20428;-94
2022/06/15 05:06:26;;;;;;;3.60;3.30;;;18.50;99.90;;;;;;5033439;28;20432;-95
2022/06/15 05:08:53;;;;;;;3.20;2.90;;;18.60;99.90;;;;;;5033318;28;20568;-96
2022/06/15 05:11:19;;;;;;;3.60;3.00;;;18.70;99.90;;;;;;5045609;28;20503;-95
2022/06/15 05:13:45;;;;;;;4.33;3.07;;;18.70;99.90;;;;;;5040535;28;20437;-96
2022/06/15 05:16:11;;;;;;;4.00;3.50;;;18.80;99.90;;;;;;5011674;28;20551;-96
2022/06/15 05:18:38;;;;;;;3.27;2.57;;;18.80;99.90;;;;;;5013647;28;20413;-95
2022/06/15 05:21:04;;;;;;;3.73;3.43;;;18.80;99.90;;;;;;5015580;28;20529;-96
2022/06/15 05:23:30;;;;;;;4.97;3.10;;;18.90;99.90;;;;;;5016534;28;20428;-95
2022/06/15 05:25:59;;;;;;;3.30;3.00;;;19.00;99.90;;;;;;5050871;28;20499;-95
2022/06/15 05:28:24;;;;;;;3.63;2.73;;;19.10;99.90;;;;;;5061029;28;20408;-94
2022/06/15 05:30:50;;;;;;;5.53;3.73;;;19.10;99.90;;;;;;5049500;28;20519;-94
2022/06/15 05:33:17;;;;;;;52.37;27.57;;;19.20;99.90;;;;;;5036670;28;21250;-94
2022/06/15 05:35:43;;;;;;;7.50;5.60;;;19.20;99.90;;;;;;5042036;28;20466;-96
2022/06/15 05:38:14;;;;;;;8.80;5.70;;;19.30;99.90;;;;;;5034918;28;20460;-94
2022/06/15 05:40:40;;;;;;;4.23;3.60;;;19.30;99.90;;;;;;5049778;28;20547;-93
2022/06/15 05:43:08;;;;;;;4.03;3.63;;;19.40;99.90;;;;;;5043324;28;20535;-94
2022/06/15 05:45:34;;;;;;;3.00;2.80;;;19.40;99.90;;;;;;5035043;28;20484;-94
2022/06/15 05:48:01;;;;;;;4.90;3.93;;;19.50;99.90;;;;;;5043457;28;20783;-96
2022/06/15 05:50:27;;;;;;;3.83;3.43;;;19.50;99.90;;;;;;5042073;28;20439;-96
2022/06/15 05:52:52;;;;;;;2.90;2.63;;;19.60;99.90;;;;;;5046879;28;20484;-93
2022/06/15 05:55:19;;;;;;;3.87;3.47;;;19.60;99.90;;;;;;5042685;28;20429;-96
2022/06/15 05:57:46;;;;;;;4.90;3.37;;;19.70;99.90;;;;;;5038328;28;20231;-96
2022/06/15 06:00:13;;;;;;;3.80;3.10;;;19.80;99.90;;;;;;5030070;28;20431;-94
2022/06/15 06:02:40;;;;;;;4.30;3.03;;;19.80;99.90;;;;;;5025348;28;20450;-94
2022/06/15 06:05:07;;;;;;;3.10;2.70;;;19.90;99.90;;;;;;5035633;28;20505;-93
2022/06/15 06:07:33;;;;;;;3.50;3.20;;;19.90;99.90;;;;;;5037589;28;21034;-96
2022/06/15 06:10:03;;;;;;;3.20;2.90;;;20.00;99.90;;;;;;5047655;28;20410;-96
2022/06/15 06:12:29;;;;;;;5.80;3.47;;;20.10;99.90;;;;;;5038142;28;20473;-94
2022/06/15 06:14:56;;;;;;;3.37;2.97;;;20.20;99.90;;;;;;5053507;28;20966;-94
2022/06/15 06:17:25;;;;;;;4.73;3.20;;;20.20;99.90;;;;;;5036741;28;20497;-96
2022/06/15 06:19:52;;;;;;;3.43;3.03;;;20.30;99.90;;;;;;5036158;28;20927;-96
2022/06/15 06:22:18;;;;;;;2.97;2.77;;;20.30;99.90;;;;;;5032987;28;20474;-94
2022/06/15 06:24:45;;;;;;;2.53;2.33;;;20.40;99.90;;;;;;5033050;28;20524;-96
2022/06/15 06:27:13;;;;;;;3.13;2.87;;;20.50;99.90;;;;;;5036034;28;20529;-96
2022/06/15 06:29:39;;;;;;;3.40;3.10;;;20.50;99.90;;;;;;5035717;28;20434;-94
2022/06/15 06:32:06;;;;;;;3.13;2.83;;;20.60;99.90;;;;;;5035104;28;20969;-94
2022/06/15 06:34:32;;;;;;;3.23;2.90;;;20.60;99.90;;;;;;5044767;28;20454;-96
2022/06/15 06:37:02;;;;;;;3.50;3.00;;;20.70;99.90;;;;;;5062540;28;20513;-96
2022/06/15 06:39:30;;;;;;;2.60;2.40;;;20.70;99.90;;;;;;5047221;28;20466;-96
2022/06/15 06:42:05;;;;;;;3.27;2.90;;;20.80;99.90;;;;;;5034896;28;20463;-94
2022/06/15 06:44:31;;;;;;;3.13;2.90;;;20.80;99.90;;;;;;5036160;28;20931;-96
2022/06/15 06:46:57;;;;;;;3.77;3.47;;;20.80;99.90;;;;;;5038578;28;20528;-94
2022/06/15 06:49:25;;;;;;;7.60;3.10;;;20.90;99.90;;;;;;5071719;28;20458;-96
2022/06/15 06:51:51;;;;;;;3.17;2.87;;;20.90;99.90;;;;;;5032812;28;20208;-93
2022/06/15 06:54:20;;;;;;;3.80;3.38;;;21.00;99.90;;;;;;5036948;28;20437;-94
2022/06/15 06:56:46;;;;;;;3.80;3.50;;;21.10;99.90;;;;;;5038402;28;20250;-94
2022/06/15 06:59:14;;;;;;;3.23;2.93;;;21.10;99.90;;;;;;5029417;28;20431;-96
2022/06/15 07:01:42;;;;;;;2.97;2.77;;;21.20;99.90;;;;;;5023750;28;20463;-96
2022/06/15 07:04:08;;;;;;;3.67;3.33;;;21.30;99.90;;;;;;5052491;28;20423;-92
2022/06/15 07:06:35;;;;;;;3.50;3.20;;;21.40;99.90;;;;;;5039830;28;20499;-94
2022/06/15 07:09:02;;;;;;;3.77;3.37;;;21.50;99.90;;;;;;5047493;28;20419;-94
2022/06/15 07:11:28;;;;;;;2.60;2.40;;;21.70;99.90;;;;;;5028473;28;20452;-93
2022/06/15 07:13:54;;;;;;;2.70;2.50;;;21.80;99.90;;;;;;5032765;28;20550;-94
2022/06/15 07:16:21;;;;;;;2.80;2.50;;;21.90;99.90;;;;;;5021428;28;20855;-94
2022/06/15 07:18:48;;;;;;;3.60;3.30;;;22.00;99.90;;;;;;5025585;28;20408;-94
2022/06/15 07:21:17;;;;;;;4.10;3.00;;;22.20;99.90;;;;;;5044048;28;20461;-95
2022/06/15 07:23:46;;;;;;;4.00;3.20;;;22.30;99.90;;;;;;5027893;28;20423;-94
2022/06/15 07:26:16;;;;;;;5.73;3.00;;;22.40;99.90;;;;;;5033438;28;20467;-94
2022/06/15 07:28:42;;;;;;;3.03;2.83;;;22.50;99.90;;;;;;5043439;28;20783;-92
2022/06/15 07:31:09;;;;;;;3.13;2.83;;;22.60;99.90;;;;;;5041227;28;21855;-96
2022/06/15 07:33:36;;;;;;;3.17;2.83;;;22.70;99.90;;;;;;5034429;28;20495;-94
2022/06/15 07:36:03;;;;;;;4.20;3.10;;;22.80;99.90;;;;;;5032496;28;20467;-94
2022/06/15 07:38:29;;;;;;;3.70;2.67;;;22.90;99.90;;;;;;5032160;28;20413;-94
2022/06/15 07:40:57;;;;;;;3.17;2.70;;;22.90;99.90;;;;;;5034806;28;20533;-94
2022/06/15 07:43:24;;;;;;;3.73;3.40;;;23.00;99.90;;;;;;5033301;28;20420;-94
2022/06/15 07:45:50;;;;;;;3.10;2.80;;;23.10;99.90;;;;;;5062199;28;20445;-94
2022/06/15 07:51:00;;;;;;;5.40;3.20;;;23.30;99.90;;;;;;5033748;28;20480;-92
2022/06/15 07:53:26;;;;;;;3.13;2.83;;;23.30;99.90;;;;;;5032394;28;20516;-93
2022/06/15 07:55:53;;;;;;;3.30;3.00;;;23.40;99.90;;;;;;5030480;28;20996;-94
2022/06/15 07:58:19;;;;;;;4.53;3.20;;;23.50;99.90;;;;;;5055354;28;20231;-93
2022/06/15 08:00:47;;;;;;;3.27;2.97;;;23.60;99.90;;;;;;5034128;28;20537;-93
2022/06/15 08:03:13;;;;;;;3.93;2.87;;;23.60;99.30;;;;;;5029432;28;20457;-93
2022/06/15 08:05:43;;;;;;;2.40;2.20;;;23.70;99.90;;;;;;5032374;28;20429;-92
2022/06/15 08:08:12;;;;;;;3.80;2.67;;;23.70;99.90;;;;;;5029361;28;20453;-93
2022/06/15 08:10:38;;;;;;;3.67;3.30;;;23.80;99.90;;;;;;5039982;28;20444;-92
2022/06/15 08:13:06;;;;;;;3.10;2.80;;;23.90;99.70;;;;;;5030542;28;20441;-93
2022/06/15 08:15:32;;;;;;;2.70;2.50;;;24.00;99.90;;;;;;5030400;28;20423;-92
2022/06/15 08:18:03;;;;;;;2.72;2.53;;;24.00;99.90;;;;;;5031669;28;21119;-92
2022/06/15 08:20:36;;;;;;;2.70;2.30;;;24.00;99.90;;;;;;5032554;28;20312;-92
2022/06/15 08:23:06;;;;;;;3.13;2.93;;;24.10;99.90;;;;;;5038352;28;20457;-92
2022/06/15 08:25:39;;;;;;;3.23;2.70;;;24.10;99.90;;;;;;5044473;28;20676;-93
2022/06/15 08:28:07;;;;;;;4.07;2.80;;;24.20;99.90;;;;;;5034150;28;20446;-92
2022/06/15 08:30:36;;;;;;;2.27;2.07;;;24.30;99.90;;;;;;5044532;28;20438;-93
2022/06/15 08:33:02;;;;;;;5.40;2.57;;;24.30;99.90;;;;;;5032891;28;20437;-93
2022/06/15 08:35:28;;;;;;;3.50;2.63;;;24.40;99.90;;;;;;5033309;28;20437;-92
2022/06/15 08:37:54;;;;;;;2.93;2.20;;;24.50;98.30;;;;;;5033786;28;20473;-92
2022/06/15 08:40:22;;;;;;;2.37;2.03;;;24.50;99.90;;;;;;5039633;28;20219;-94
2022/06/15 08:43:22;;;;;;;97.97;51.93;;;24.50;99.70;;;;;;5031987;28;20487;-92
2022/06/15 08:45:52;;;;;;;20.10;12.93;;;24.60;99.40;;;;;;5030554;28;20464;-93
2022/06/15 08:48:53;;;;;;;3.50;3.20;;;24.70;98.70;;;;;;5036954;28;20452;-92
2022/06/15 08:51:36;;;;;;;2.83;2.10;;;24.80;99.40;;;;;;5046452;28;20805;-93
2022/06/15 08:54:18;;;;;;;3.17;2.37;;;24.90;97.00;;;;;;5035140;28;20521;-93
2022/06/15 08:56:52;;;;;;;3.40;2.60;;;25.00;98.60;;;;;;5021366;28;20498;-93
2022/06/15 08:59:38;;;;;;;2.77;2.23;;;25.10;96.50;;;;;;5037164;28;20423;-92
2022/06/15 09:02:30;;;;;;;2.67;2.47;;;25.20;96.20;;;;;;5037974;28;20548;-93
2022/06/15 09:05:11;;;;;;;2.10;2.00;;;25.30;96.50;;;;;;5043139;28;20420;-92
2022/06/15 09:07:59;;;;;;;2.00;1.90;;;25.40;96.50;;;;;;5051183;28;20426;-92
2022/06/15 09:10:51;;;;;;;2.17;2.07;;;25.50;95.80;;;;;;5017058;28;20501;-92
2022/06/15 09:13:38;;;;;;;4.70;1.80;;;25.60;94.70;;;;;;5039619;28;20439;-92
2022/06/15 09:16:24;;;;;;;2.30;2.10;;;25.80;94.50;;;;;;5035181;28;20471;-92
2022/06/15 09:19:03;;;;;;;2.63;2.23;;;25.90;93.00;;;;;;5040783;28;20446;-92
2022/06/15 09:21:36;;;;;;;2.03;1.70;;;26.00;94.00;;;;;;5041935;28;20508;-93
2022/06/15 09:24:20;;;;;;;2.00;1.87;;;26.10;91.40;;;;;;5024285;28;20454;-93
2022/06/15 09:26:56;;;;;;;2.20;2.00;;;26.20;94.00;;;;;;5037027;28;20495;-93
2022/06/15 09:29:24;;;;;;;2.27;2.00;;;26.20;94.20;;;;;;5035931;28;20468;-93
2022/06/15 09:32:12;;;;;;;2.53;2.20;;;26.40;93.20;;;;;;5035989;28;20574;-92
2022/06/15 09:34:42;;;;;;;2.90;2.47;;;26.40;92.90;;;;;;5060378;28;20462;-93
2022/06/15 09:37:16;;;;;;;1.90;1.80;;;26.50;93.80;;;;;;5036433;28;20487;-92
2022/06/15 09:39:42;;;;;;;1.87;1.77;;;26.60;92.80;;;;;;5034655;28;20506;-92
2022/06/15 09:42:45;;;;;;;2.40;2.20;;;26.60;93.60;;;;;;5036232;28;20455;-92
2022/06/15 09:45:37;;;;;;;4.63;2.27;;;26.70;90.00;;;;;;5042374;28;20458;-93
2022/06/15 09:48:03;;;;;;;404.48;216.15;;;26.80;90.60;;;;;;5032397;28;20420;-91
2022/06/15 09:50:35;;;;;;;24.70;15.48;;;26.80;91.70;;;;;;5035741;28;20446;-92
2022/06/15 09:53:04;;;;;;;2.70;2.43;;;26.90;92.00;;;;;;5035471;28;20289;-94
2022/06/15 09:55:30;;;;;;;3.30;3.00;;;27.00;90.30;;;;;;5041928;28;20489;-92
2022/06/15 09:57:58;;;;;;;2.43;2.23;;;27.00;92.00;;;;;;5072278;28;20565;-92
2022/06/15 10:00:24;;;;;;;2.23;2.03;;;27.00;91.70;;;;;;5035171;28;20443;-93
2022/06/15 10:02:56;;;;;;;2.70;1.80;;;27.00;91.90;;;;;;5041391;28;20426;-92
2022/06/15 10:05:30;;;;;;;3.07;2.27;;;27.00;91.00;;;;;;5044205;28;20426;-93
2022/06/15 10:07:59;;;;;;;3.57;1.90;;;27.10;90.70;;;;;;5061391;28;20438;-93
2022/06/15 10:10:30;;;;;;;2.80;2.60;;;27.10;91.00;;;;;;5034632;28;20951;-91
2022/06/15 10:13:19;;;;;;;2.50;2.30;;;27.10;87.10;;;;;;5036032;28;20442;-95
2022/06/15 10:16:18;;;;;;;2.37;2.17;;;27.10;87.20;;;;;;5048664;28;20532;-93
2022/06/15 10:18:52;;;;;;;2.40;2.20;;;27.10;87.30;;;;;;5052562;28;20466;-93
2022/06/15 10:21:24;;;;;;;1.83;1.73;;;27.10;86.80;;;;;;5040731;28;20452;-94
2022/06/15 10:23:51;;;;;;;3.37;2.30;;;27.20;87.50;;;;;;5036255;28;20431;-94
2022/06/15 10:26:29;;;;;;;2.47;2.27;;;27.20;88.10;;;;;;5027013;28;20984;-94
2022/06/15 10:28:58;;;;;;;2.60;2.27;;;27.20;90.40;;;;;;5036503;28;20443;-94
2022/06/15 10:31:30;;;;;;;2.70;2.00;;;27.20;85.40;;;;;;5033176;28;20459;-93
2022/06/15 10:33:57;;;;;;;2.03;1.93;;;27.30;87.00;;;;;;5032586;28;20427;-92
2022/06/15 10:36:32;;;;;;;1.87;1.77;;;27.30;87.10;;;;;;5034527;28;20467;-92
2022/06/15 10:39:12;;;;;;;2.13;1.80;;;27.40;85.10;;;;;;5032119;28;20438;-93
2022/06/15 10:41:47;;;;;;;1.87;1.50;;;27.40;87.30;;;;;;5030843;28;20474;-92
2022/06/15 10:44:27;;;;;;;2.50;1.65;;;27.40;88.90;;;;;;5049140;28;20333;-92
2022/06/15 10:47:22;;;;;;;1.70;1.57;;;27.40;90.20;;;;;;5030880;28;20209;-91
2022/06/15 10:49:52;;;;;;;2.23;1.90;;;27.40;84.10;;;;;;5053092;28;20458;-91
2022/06/15 10:52:44;;;;;;;1.27;1.20;;;27.50;83.00;;;;;;5026764;28;20509;-91
2022/06/15 11:04:14;;;;;;;2.27;2.07;;;27.30;89.30;;;;;;5037277;28;20419;-91
2022/06/15 11:06:51;;;;;;;2.20;2.07;;;27.20;89.80;;;;;;5033449;28;20463;-92
2022/06/15 11:09:30;;;;;;;1.83;1.70;;;27.20;87.70;;;;;;5033505;28;20492;-93
2022/06/15 11:12:00;;;;;;;2.23;2.03;;;27.10;88.60;;;;;;5030506;28;20467;-92
2022/06/15 11:14:33;;;;;;;2.30;2.10;;;27.10;90.40;;;;;;5034684;28;20786;-92
2022/06/15 11:20:34;;;;;;;4.77;2.07;;;27.00;91.50;;;;;;5039422;28;20415;-92
2022/06/15 11:23:19;;;;;;;1.70;1.60;;;26.90;91.40;;;;;;5032712;28;20528;-91
2022/06/15 11:26:01;;;;;;;2.03;1.93;;;26.80;90.40;;;;;;5033644;28;20581;-92
2022/06/15 11:28:36;;;;;;;2.00;1.73;;;26.90;86.30;;;;;;5042382;28;20450;-90
2022/06/15 11:31:07;;;;;;;2.13;2.03;;;26.80;85.50;;;;;;5030236;28;20446;-91
2022/06/15 11:34:05;;;;;;;2.80;1.80;;;26.80;84.60;;;;;;5041453;28;20420;-91
2022/06/15 11:36:49;;;;;;;1.50;1.40;;;26.80;86.50;;;;;;5044861;28;20550;-92
2022/06/15 11:39:36;;;;;;;2.10;1.90;;;26.70;88.50;;;;;;5032149;28;20469;-92
2022/06/15 11:42:02;;;;;;;1.70;1.53;;;26.70;87.60;;;;;;5036023;28;20463;-92
2022/06/15 11:44:31;;;;;;;1.77;1.40;;;26.60;87.50;;;;;;5033671;28;20459;-92
2022/06/15 11:47:35;;;;;;;1.87;1.77;;;26.60;86.60;;;;;;5034232;28;20983;-92
2022/06/15 11:50:27;;;;;;;1.47;1.37;;;26.60;85.80;;;;;;5033883;28;20470;-92
2022/06/15 11:53:02;;;;;;;2.20;2.00;;;26.60;83.50;;;;;;5031527;28;20527;-91
2022/06/15 11:55:45;;;;;;;2.07;1.83;;;26.70;81.30;;;;;;5045749;28;20445;-92
2022/06/15 11:58:52;;;;;;;1.67;1.57;;;26.70;83.40;;;;;;5031535;28;20513;-92
2022/06/15 12:01:36;;;;;;;1.73;1.63;;;26.70;84.60;;;;;;5016553;28;20475;-91
2022/06/15 12:04:24;;;;;;;1.93;1.73;;;26.70;85.30;;;;;;5032092;28;20531;-92
2022/06/15 12:07:03;;;;;;;1.93;1.80;;;26.70;86.80;;;;;;5032572;28;20550;-91
2022/06/15 12:09:31;;;;;;;1.80;1.70;;;26.70;84.30;;;;;;5038786;28;20446;-92
2022/06/15 12:15:12;;;;;;;2.60;1.93;;;26.80;82.60;;;;;;5025150;28;20439;-91
2022/06/15 12:17:54;;;;;;;2.50;1.90;;;26.80;86.80;;;;;;5036917;28;20483;-92
2022/06/15 12:20:37;;;;;;;1.80;1.70;;;26.70;82.10;;;;;;5026831;28;20440;-92
2022/06/15 12:23:41;;;;;;;1.83;1.53;;;26.80;83.80;;;;;;5024197;28;20470;-93
2022/06/15 12:26:39;;;;;;;1.93;1.83;;;26.70;87.60;;;;;;5030706;28;20517;-92
2022/06/15 12:29:55;;;;;;;1.60;1.50;;;26.80;88.00;;;;;;5040236;28;20434;-92
2022/06/15 12:35:20;;;;;;;1.57;1.47;;;26.80;85.60;;;;;;5015088;28;20429;-93
2022/06/15 12:38:02;;;;;;;1.87;1.70;;;26.80;86.60;;;;;;5041662;28;20479;-93
2022/06/15 12:40:42;;;;;;;2.07;1.90;;;26.90;83.30;;;;;;5035000;28;20463;-92
2022/06/15 12:43:13;;;;;;;1.90;1.80;;;26.90;83.20;;;;;;5029987;28;20538;-92
2022/06/15 12:45:49;;;;;;;1.60;1.50;;;26.90;84.10;;;;;;5050866;28;20446;-92
2022/06/15 12:48:39;;;;;;;3.60;2.00;;;26.90;83.80;;;;;;5037371;28;20454;-93
2022/06/15 12:51:11;;;;;;;2.60;1.90;;;26.90;84.70;;;;;;5040504;28;20473;-93
2022/06/15 12:53:54;;;;;;;1.67;1.57;;;26.90;87.90;;;;;;5052435;28;20430;-94
2022/06/15 12:56:42;;;;;;;2.07;1.90;;;26.90;78.80;;;;;;5031293;28;20487;-93
2022/06/15 12:59:27;;;;;;;2.13;1.87;;;26.90;87.30;;;;;;5027975;28;20467;-95
2022/06/15 13:02:15;;;;;;;2.97;1.87;;;26.90;83.60;;;;;;5030833;28;20455;-95
2022/06/15 13:05:06;;;;;;;2.53;2.00;;;26.90;85.50;;;;;;5030270;28;20527;-95
2022/06/15 13:07:35;;;;;;;2.20;1.90;;;27.00;84.60;;;;;;5028559;28;20448;-93
2022/06/15 13:10:07;;;;;;;2.33;2.13;;;27.00;79.90;;;;;;5031896;28;20447;-93
2022/06/15 13:12:42;;;;;;;2.10;2.00;;;27.00;78.80;;;;;;5032547;28;20443;-95
2022/06/15 13:15:59;;;;;;;1.40;1.30;;;27.00;80.90;;;;;;5044087;28;20968;-95
2022/06/15 13:18:49;;;;;;;3.40;2.07;;;27.00;82.30;;;;;;5038301;28;20478;-93
2022/06/15 13:21:17;;;;;;;2.03;1.93;;;27.00;82.80;;;;;;5030716;28;20471;-95
2022/06/15 13:23:51;;;;;;;1.70;1.60;;;27.00;80.10;;;;;;5036156;28;20411;-95
2022/06/15 13:26:31;;;;;;;2.40;1.80;;;27.00;78.30;;;;;;5047884;28;20467;-94
2022/06/15 13:29:03;;;;;;;1.93;1.83;;;27.10;78.90;;;;;;5029651;28;20970;-95
2022/06/15 13:31:52;;;;;;;2.83;1.80;;;27.10;81.60;;;;;;5033323;28;20536;-94
2022/06/15 13:34:34;;;;;;;2.20;2.00;;;27.10;80.40;;;;;;5027419;28;20450;-94
2022/06/15 13:37:15;;;;;;;1.87;1.50;;;27.20;80.10;;;;;;5025157;28;20486;-96